sensor_id;sensor_type;location;lat;lon;timestamp;pressure;altitude;pressure_sealevel;temperature;humidity
71424;BME280;59240;51.370;-0.486;2024-03-25T00:01:07;100644.97;;;6.76;60.21
71424;BME280;59240;51.370;-0.486;2024-03-25T00:06:02;100670.66;;;7.00;60.22
71424;BME280;59240;51.370;-0.486;2024-03-25T00:10:58;100680.88;;;7.12;60.42
71424;BME280;59240;51.370;-0.486;2024-03-25T00:15:54;100674.78;;;7.18;60.63
71424;BME280;59240;51.370;-0.486;2024-03-25T00:20:50;100648.03;;;7.18;60.94
71424;BME280;59240;51.370;-0.486;2024-03-25T00:25:47;100648.84;;;7.23;60.97
71424;BME280;59240;51.370;-0.486;2024-03-25T00:30:43;100645.50;;;7.15;61.25
71424;BME280;59240;51.370;-0.486;2024-03-25T00:35:40;100649.66;;;7.28;61.34
71424;BME280;59240;51.370;-0.486;2024-03-25T00:40:35;100641.03;;;7.26;61.32
71424;BME280;59240;51.370;-0.486;2024-03-25T00:45:31;100619.50;;;7.19;61.34
71424;BME280;59240;51.370;-0.486;2024-03-25T00:50:27;100612.59;;;7.20;61.52
71424;BME280;59240;51.370;-0.486;2024-03-25T00:55:22;100620.34;;;7.23;61.65
71424;BME280;59240;51.370;-0.486;2024-03-25T01:00:19;100609.19;;;7.16;62.05
71424;BME280;59240;51.370;-0.486;2024-03-25T01:05:15;100604.09;;;7.08;62.26
71424;BME280;59240;51.370;-0.486;2024-03-25T01:10:10;100586.81;;;7.09;62.50
71424;BME280;59240;51.370;-0.486;2024-03-25T01:15:06;100563.69;;;6.92;62.71
71424;BME280;59240;51.370;-0.486;2024-03-25T01:20:03;100601.44;;;7.15;62.97
71424;BME280;59240;51.370;-0.486;2024-03-25T01:25:00;100572.25;;;7.00;62.96
71424;BME280;59240;51.370;-0.486;2024-03-25T01:29:55;100585.97;;;7.08;63.16
71424;BME280;59240;51.370;-0.486;2024-03-25T01:34:51;100567.91;;;6.99;63.17
71424;BME280;59240;51.370;-0.486;2024-03-25T01:39:50;100573.03;;;7.07;63.94
71424;BME280;59240;51.370;-0.486;2024-03-25T01:44:45;100559.22;;;7.05;63.79
71424;BME280;59240;51.370;-0.486;2024-03-25T01:49:42;100526.56;;;6.93;63.87
71424;BME280;59240;51.370;-0.486;2024-03-25T01:54:38;100529.00;;;7.08;63.99
71424;BME280;59240;51.370;-0.486;2024-03-25T01:59:34;100515.19;;;7.05;64.24
71424;BME280;59240;51.370;-0.486;2024-03-25T02:04:30;100513.38;;;7.13;64.32
71424;BME280;59240;51.370;-0.486;2024-03-25T02:09:27;100511.63;;;7.13;64.38
71424;BME280;59240;51.370;-0.486;2024-03-25T02:14:24;100491.97;;;7.00;64.66
71424;BME280;59240;51.370;-0.486;2024-03-25T02:19:21;100496.91;;;7.19;65.10
71424;BME280;59240;51.370;-0.486;2024-03-25T02:24:19;100482.22;;;7.21;64.98
71424;BME280;59240;51.370;-0.486;2024-03-25T02:29:16;100482.22;;;7.21;64.92
71424;BME280;59240;51.370;-0.486;2024-03-25T02:34:14;100475.19;;;7.29;65.77
71424;BME280;59240;51.370;-0.486;2024-03-25T02:39:09;100460.13;;;7.55;64.69
71424;BME280;59240;51.370;-0.486;2024-03-25T02:44:05;100462.97;;;7.37;65.58
71424;BME280;59240;51.370;-0.486;2024-03-25T02:49:01;100458.66;;;7.37;65.76
71424;BME280;59240;51.370;-0.486;2024-03-25T02:53:57;100442.25;;;7.37;65.80
71424;BME280;59240;51.370;-0.486;2024-03-25T02:58:52;100411.28;;;7.28;65.92
71424;BME280;59240;51.370;-0.486;2024-03-25T03:03:48;100416.28;;;7.40;65.87
71424;BME280;59240;51.370;-0.486;2024-03-25T03:08:44;100408.50;;;7.42;65.81
71424;BME280;59240;51.370;-0.486;2024-03-25T03:13:39;100398.06;;;7.45;65.98
71424;BME280;59240;51.370;-0.486;2024-03-25T03:18:35;100401.50;;;7.47;66.07
71424;BME280;59240;51.370;-0.486;2024-03-25T03:23:31;100394.56;;;7.49;66.01
71424;BME280;59240;51.370;-0.486;2024-03-25T03:28:26;100390.28;;;7.46;66.34
71424;BME280;59240;51.370;-0.486;2024-03-25T03:33:23;100367.00;;;7.43;66.35
71424;BME280;59240;51.370;-0.486;2024-03-25T03:38:19;100352.28;;;7.45;66.11
71424;BME280;59240;51.370;-0.486;2024-03-25T03:43:15;100365.78;;;7.65;66.08
71424;BME280;59240;51.370;-0.486;2024-03-25T03:48:10;100351.28;;;7.54;66.51
71424;BME280;59240;51.370;-0.486;2024-03-25T03:53:06;100328.16;;;7.42;66.68
71424;BME280;59240;51.370;-0.486;2024-03-25T03:58:02;100345.09;;;7.62;66.97
71424;BME280;59240;51.370;-0.486;2024-03-25T04:02:58;100323.63;;;7.54;67.26
71424;BME280;59240;51.370;-0.486;2024-03-25T04:07:53;100340.63;;;7.71;67.46
71424;BME280;59240;51.370;-0.486;2024-03-25T04:12:49;100328.53;;;7.71;67.76
71424;BME280;59240;51.370;-0.486;2024-03-25T04:17:45;100320.59;;;7.79;68.06
71424;BME280;59240;51.370;-0.486;2024-03-25T04:22:42;100322.28;;;7.83;68.34
71424;BME280;59240;51.370;-0.486;2024-03-25T04:27:38;100305.88;;;7.82;68.46
71424;BME280;59240;51.370;-0.486;2024-03-25T04:32:35;100311.53;;;8.01;68.48
71424;BME280;59240;51.370;-0.486;2024-03-25T04:37:30;100298.41;;;8.10;67.99
71424;BME280;59240;51.370;-0.486;2024-03-25T04:42:27;100299.03;;;8.21;68.04
71424;BME280;59240;51.370;-0.486;2024-03-25T04:47:23;100298.09;;;8.26;68.21
71424;BME280;59240;51.370;-0.486;2024-03-25T04:52:19;100301.75;;;8.17;68.98
71424;BME280;59240;51.370;-0.486;2024-03-25T04:57:18;100289.44;;;8.27;69.01
71424;BME280;59240;51.370;-0.486;2024-03-25T05:02:18;100291.84;;;8.36;68.99
71424;BME280;59240;51.370;-0.486;2024-03-25T05:07:14;100283.44;;;8.23;69.94
71424;BME280;59240;51.370;-0.486;2024-03-25T05:12:10;100275.56;;;8.28;70.35
71424;BME280;59240;51.370;-0.486;2024-03-25T05:17:05;100273.81;;;8.28;70.78
71424;BME280;59240;51.370;-0.486;2024-03-25T05:22:03;100250.59;;;8.23;71.08
71424;BME280;59240;51.370;-0.486;2024-03-25T05:26:59;100276.16;;;8.42;71.17
71424;BME280;59240;51.370;-0.486;2024-03-25T05:31:57;100276.84;;;8.50;71.60
71424;BME280;59240;51.370;-0.486;2024-03-25T05:36:53;100242.53;;;8.36;71.51
71424;BME280;59240;51.370;-0.486;2024-03-25T05:41:49;100250.78;;;8.55;71.99
71424;BME280;59240;51.370;-0.486;2024-03-25T05:46:44;100255.00;;;8.60;71.92
71424;BME280;59240;51.370;-0.486;2024-03-25T05:51:40;100247.13;;;8.63;72.28
71424;BME280;59240;51.370;-0.486;2024-03-25T05:56:35;100249.72;;;8.63;72.40
71424;BME280;59240;51.370;-0.486;2024-03-25T06:01:31;100224.59;;;8.64;72.10
71424;BME280;59240;51.370;-0.486;2024-03-25T06:06:27;100232.22;;;8.71;72.15
71424;BME280;59240;51.370;-0.486;2024-03-25T06:11:23;100225.41;;;8.67;72.29
71424;BME280;59240;51.370;-0.486;2024-03-25T06:16:18;100201.41;;;8.56;72.56
71424;BME280;59240;51.370;-0.486;2024-03-25T06:21:14;100222.00;;;8.65;73.12
71424;BME280;59240;51.370;-0.486;2024-03-25T06:26:10;100219.78;;;8.86;72.92
71424;BME280;59240;51.370;-0.486;2024-03-25T06:31:06;100195.66;;;8.81;73.21
71424;BME280;59240;51.370;-0.486;2024-03-25T06:36:22;100198.69;;;8.98;74.93
71424;BME280;59240;51.370;-0.486;2024-03-25T06:41:18;100195.03;;;9.05;73.76
71424;BME280;59240;51.370;-0.486;2024-03-25T06:46:14;100161.47;;;8.97;73.89
71424;BME280;59240;51.370;-0.486;2024-03-25T06:51:09;100180.78;;;9.21;74.38
71424;BME280;59240;51.370;-0.486;2024-03-25T06:56:05;100192.63;;;9.31;74.43
71424;BME280;59240;51.370;-0.486;2024-03-25T07:01:08;100203.63;;;9.43;76.00
71424;BME280;59240;51.370;-0.486;2024-03-25T07:06:04;100192.22;;;9.47;74.54
71424;BME280;59240;51.370;-0.486;2024-03-25T07:11:00;100169.03;;;9.41;74.36
71424;BME280;59240;51.370;-0.486;2024-03-25T07:15:56;100179.00;;;9.56;74.15
71424;BME280;59240;51.370;-0.486;2024-03-25T07:20:52;100144.78;;;9.39;74.67
71424;BME280;59240;51.370;-0.486;2024-03-25T07:25:48;100178.00;;;9.60;74.30
71424;BME280;59240;51.370;-0.486;2024-03-25T07:30:44;100150.44;;;9.54;73.97
71424;BME280;59240;51.370;-0.486;2024-03-25T07:35:39;100129.44;;;9.62;73.66
71424;BME280;59240;51.370;-0.486;2024-03-25T07:40:35;100158.03;;;9.92;73.58
71424;BME280;59240;51.370;-0.486;2024-03-25T07:45:30;100157.41;;;10.13;73.54
71424;BME280;59240;51.370;-0.486;2024-03-25T07:50:26;100149.13;;;10.30;73.68
71424;BME280;59240;51.370;-0.486;2024-03-25T07:55:22;100139.97;;;10.45;73.70
71424;BME280;59240;51.370;-0.486;2024-03-25T08:00:18;100132.44;;;10.35;74.38
71424;BME280;59240;51.370;-0.486;2024-03-25T08:05:14;100118.31;;;10.43;74.06
71424;BME280;59240;51.370;-0.486;2024-03-25T08:10:09;100137.41;;;10.69;73.56
71424;BME280;59240;51.370;-0.486;2024-03-25T08:15:05;100109.78;;;10.65;73.73
71424;BME280;59240;51.370;-0.486;2024-03-25T08:20:01;100114.78;;;10.72;73.91
71424;BME280;59240;51.370;-0.486;2024-03-25T08:24:58;100127.25;;;10.88;74.44
71424;BME280;59240;51.370;-0.486;2024-03-25T08:29:54;100108.94;;;10.91;74.27
71424;BME280;59240;51.370;-0.486;2024-03-25T08:34:49;100065.13;;;10.76;73.87
71424;BME280;59240;51.370;-0.486;2024-03-25T08:39:45;100102.59;;;10.99;73.00
71424;BME280;59240;51.370;-0.486;2024-03-25T08:44:42;100069.84;;;10.91;72.73
71424;BME280;59240;51.370;-0.486;2024-03-25T08:49:37;100089.13;;;11.11;72.14
71424;BME280;59240;51.370;-0.486;2024-03-25T08:54:33;100066.41;;;10.89;72.00
71424;BME280;59240;51.370;-0.486;2024-03-25T08:59:29;100075.78;;;11.20;71.26
71424;BME280;59240;51.370;-0.486;2024-03-25T09:04:25;100072.03;;;11.27;70.81
71424;BME280;59240;51.370;-0.486;2024-03-25T09:09:20;100077.88;;;11.34;70.31
71424;BME280;59240;51.370;-0.486;2024-03-25T09:14:38;100062.09;;;11.13;69.39
71424;BME280;59240;51.370;-0.486;2024-03-25T09:19:33;100049.44;;;11.03;69.26
71424;BME280;59240;51.370;-0.486;2024-03-25T09:24:29;100072.41;;;11.16;69.64
71424;BME280;59240;51.370;-0.486;2024-03-25T09:29:25;100044.28;;;11.01;69.46
71424;BME280;59240;51.370;-0.486;2024-03-25T09:34:20;100047.38;;;11.12;69.50
71424;BME280;59240;51.370;-0.486;2024-03-25T09:39:16;100060.91;;;11.22;69.18
71424;BME280;59240;51.370;-0.486;2024-03-25T09:44:12;100052.75;;;11.31;68.20
71424;BME280;59240;51.370;-0.486;2024-03-25T09:49:07;100049.34;;;11.29;67.71
71424;BME280;59240;51.370;-0.486;2024-03-25T09:54:03;100045.00;;;11.30;67.06
71424;BME280;59240;51.370;-0.486;2024-03-25T09:59:00;100045.53;;;11.39;67.54
71424;BME280;59240;51.370;-0.486;2024-03-25T10:03:56;100052.09;;;11.49;67.24
71424;BME280;59240;51.370;-0.486;2024-03-25T10:08:54;99993.91;;;11.24;65.40
71424;BME280;59240;51.370;-0.486;2024-03-25T10:13:54;100009.84;;;11.40;66.61
71424;BME280;59240;51.370;-0.486;2024-03-25T10:18:50;100038.84;;;11.77;66.33
71424;BME280;59240;51.370;-0.486;2024-03-25T10:23:48;100031.56;;;11.87;65.77
71424;BME280;59240;51.370;-0.486;2024-03-25T10:28:44;99972.31;;;11.66;65.59
71424;BME280;59240;51.370;-0.486;2024-03-25T10:33:39;100018.34;;;12.12;65.51
71424;BME280;59240;51.370;-0.486;2024-03-25T10:38:35;99999.75;;;12.20;64.98
71424;BME280;59240;51.370;-0.486;2024-03-25T10:43:32;99978.59;;;12.05;64.31
71424;BME280;59240;51.370;-0.486;2024-03-25T10:48:31;99974.47;;;12.22;63.87
71424;BME280;59240;51.370;-0.486;2024-03-25T10:53:29;99975.50;;;12.38;63.78
71424;BME280;59240;51.370;-0.486;2024-03-25T10:58:25;99989.41;;;12.59;63.36
71424;BME280;59240;51.370;-0.486;2024-03-25T11:03:22;99973.66;;;12.81;63.55
71424;BME280;59240;51.370;-0.486;2024-03-25T11:08:18;99929.16;;;13.01;63.33
71424;BME280;59240;51.370;-0.486;2024-03-25T11:13:19;99959.38;;;13.46;61.68
71424;BME280;59240;51.370;-0.486;2024-03-25T11:18:16;99952.94;;;13.53;61.80
71424;BME280;59240;51.370;-0.486;2024-03-25T11:23:13;99936.75;;;13.45;61.00
71424;BME280;59240;51.370;-0.486;2024-03-25T11:28:09;99908.28;;;13.39;59.71
71424;BME280;59240;51.370;-0.486;2024-03-25T11:33:05;99924.75;;;13.58;61.10
71424;BME280;59240;51.370;-0.486;2024-03-25T11:38:01;99913.88;;;13.67;60.55
71424;BME280;59240;51.370;-0.486;2024-03-25T11:42:58;99886.00;;;13.66;60.02
71424;BME280;59240;51.370;-0.486;2024-03-25T11:47:53;99868.44;;;13.68;59.63
71424;BME280;59240;51.370;-0.486;2024-03-25T11:52:49;99868.91;;;13.77;59.31
71424;BME280;59240;51.370;-0.486;2024-03-25T11:57:45;99864.59;;;14.10;59.11
71424;BME280;59240;51.370;-0.486;2024-03-25T12:02:44;99880.19;;;14.64;57.47
71424;BME280;59240;51.370;-0.486;2024-03-25T12:07:40;99861.94;;;14.94;57.16
71424;BME280;59240;51.370;-0.486;2024-03-25T12:12:36;99824.81;;;14.86;56.25
71424;BME280;59240;51.370;-0.486;2024-03-25T12:17:34;99817.53;;;14.75;55.85
71424;BME280;59240;51.370;-0.486;2024-03-25T12:22:31;99818.47;;;14.74;56.14
71424;BME280;59240;51.370;-0.486;2024-03-25T12:27:28;99821.81;;;14.60;55.44
71424;BME280;59240;51.370;-0.486;2024-03-25T12:32:31;99823.09;;;14.53;53.76
71424;BME280;59240;51.370;-0.486;2024-03-25T12:37:27;99801.84;;;14.42;54.70
71424;BME280;59240;51.370;-0.486;2024-03-25T12:42:22;99773.28;;;14.20;54.76
71424;BME280;59240;51.370;-0.486;2024-03-25T12:47:18;99774.59;;;14.29;55.52
71424;BME280;59240;51.370;-0.486;2024-03-25T12:52:16;99783.28;;;14.62;53.76
71424;BME280;59240;51.370;-0.486;2024-03-25T12:57:11;99762.06;;;14.83;54.10
71424;BME280;59240;51.370;-0.486;2024-03-25T13:02:10;99743.00;;;14.95;52.48
71424;BME280;59240;51.370;-0.486;2024-03-25T13:07:06;99764.50;;;15.01;52.82
71424;BME280;59240;51.370;-0.486;2024-03-25T13:12:02;99749.13;;;14.80;52.67
71424;BME280;59240;51.370;-0.486;2024-03-25T13:16:59;99733.22;;;14.83;51.28
71424;BME280;59240;51.370;-0.486;2024-03-25T13:21:57;99730.19;;;14.90;50.70
71424;BME280;59240;51.370;-0.486;2024-03-25T13:26:53;99746.13;;;15.17;51.75
71424;BME280;59240;51.370;-0.486;2024-03-25T13:31:49;99730.44;;;15.31;51.05
71424;BME280;59240;51.370;-0.486;2024-03-25T13:36:44;99735.00;;;15.58;49.03
71424;BME280;59240;51.370;-0.486;2024-03-25T13:41:42;99703.25;;;15.32;49.61
71424;BME280;59240;51.370;-0.486;2024-03-25T13:46:40;99701.13;;;15.23;49.68
71424;BME280;59240;51.370;-0.486;2024-03-25T13:51:36;99717.34;;;15.46;50.19
71424;BME280;59240;51.370;-0.486;2024-03-25T13:56:31;99668.31;;;15.16;49.22
71424;BME280;59240;51.370;-0.486;2024-03-25T14:01:27;99707.00;;;15.43;49.57
71424;BME280;59240;51.370;-0.486;2024-03-25T14:06:23;99675.09;;;15.20;48.45
71424;BME280;59240;51.370;-0.486;2024-03-25T14:11:18;99671.88;;;15.15;48.42
71424;BME280;59240;51.370;-0.486;2024-03-25T14:16:14;99666.97;;;15.25;48.15
71424;BME280;59240;51.370;-0.486;2024-03-25T14:21:10;99653.53;;;15.15;45.81
71424;BME280;59240;51.370;-0.486;2024-03-25T14:26:05;99664.78;;;15.17;47.81
71424;BME280;59240;51.370;-0.486;2024-03-25T14:31:01;99641.25;;;15.16;47.97
71424;BME280;59240;51.370;-0.486;2024-03-25T14:35:57;99627.88;;;15.20;48.04
71424;BME280;59240;51.370;-0.486;2024-03-25T14:40:52;99641.22;;;15.31;47.35
71424;BME280;59240;51.370;-0.486;2024-03-25T14:45:48;99628.00;;;15.33;47.72
71424;BME280;59240;51.370;-0.486;2024-03-25T14:50:44;99625.34;;;15.19;45.19
71424;BME280;59240;51.370;-0.486;2024-03-25T14:55:41;99619.41;;;15.15;47.55
71424;BME280;59240;51.370;-0.486;2024-03-25T15:00:37;99600.13;;;15.16;47.90
71424;BME280;59240;51.370;-0.486;2024-03-25T15:05:33;99592.81;;;15.21;47.99
71424;BME280;59240;51.370;-0.486;2024-03-25T15:10:28;99552.34;;;14.97;47.58
71424;BME280;59240;51.370;-0.486;2024-03-25T15:15:24;99580.25;;;14.98;47.13
71424;BME280;59240;51.370;-0.486;2024-03-25T15:20:19;99561.59;;;14.58;47.31
71424;BME280;59240;51.370;-0.486;2024-03-25T15:25:15;99573.22;;;14.68;47.19
71424;BME280;59240;51.370;-0.486;2024-03-25T15:30:11;99510.75;;;14.31;47.32
71424;BME280;59240;51.370;-0.486;2024-03-25T15:35:07;99540.56;;;14.44;47.35
71424;BME280;59240;51.370;-0.486;2024-03-25T15:40:04;99555.22;;;14.48;46.84
71424;BME280;59240;51.370;-0.486;2024-03-25T15:45:02;99504.00;;;14.27;47.54
71424;BME280;59240;51.370;-0.486;2024-03-25T15:49:58;99522.75;;;14.35;47.84
71424;BME280;59240;51.370;-0.486;2024-03-25T15:54:53;99492.03;;;14.22;47.82
71424;BME280;59240;51.370;-0.486;2024-03-25T15:59:49;99517.22;;;14.39;47.65
71424;BME280;59240;51.370;-0.486;2024-03-25T16:04:45;99517.88;;;14.29;47.71
71424;BME280;59240;51.370;-0.486;2024-03-25T16:09:40;99485.03;;;14.07;47.44
71424;BME280;59240;51.370;-0.486;2024-03-25T16:14:36;99506.56;;;14.12;47.78
71424;BME280;59240;51.370;-0.486;2024-03-25T16:19:32;99496.63;;;14.03;47.79
71424;BME280;59240;51.370;-0.486;2024-03-25T16:24:28;99475.84;;;13.84;48.02
71424;BME280;59240;51.370;-0.486;2024-03-25T16:29:24;99472.31;;;13.69;47.80
71424;BME280;59240;51.370;-0.486;2024-03-25T16:34:20;99461.78;;;13.55;47.56
71424;BME280;59240;51.370;-0.486;2024-03-25T16:39:17;99461.19;;;13.50;47.88
71424;BME280;59240;51.370;-0.486;2024-03-25T16:44:13;99438.06;;;13.27;48.08
71424;BME280;59240;51.370;-0.486;2024-03-25T16:49:09;99458.81;;;13.30;48.27
71424;BME280;59240;51.370;-0.486;2024-03-25T16:54:05;99464.13;;;13.28;48.26
71424;BME280;59240;51.370;-0.486;2024-03-25T16:59:00;99480.34;;;13.35;48.78
71424;BME280;59240;51.370;-0.486;2024-03-25T17:03:56;99476.03;;;13.34;48.70
71424;BME280;59240;51.370;-0.486;2024-03-25T17:08:51;99479.91;;;13.27;48.71
71424;BME280;59240;51.370;-0.486;2024-03-25T17:13:47;99464.16;;;13.11;48.23
71424;BME280;59240;51.370;-0.486;2024-03-25T17:18:43;99456.03;;;13.00;47.90
71424;BME280;59240;51.370;-0.486;2024-03-25T17:23:38;99468.50;;;12.95;48.10
71424;BME280;59240;51.370;-0.486;2024-03-25T17:28:34;99450.41;;;12.74;48.33
71424;BME280;59240;51.370;-0.486;2024-03-25T17:33:31;99471.16;;;12.77;48.42
71424;BME280;59240;51.370;-0.486;2024-03-25T17:38:26;99465.41;;;12.71;48.90
71424;BME280;59240;51.370;-0.486;2024-03-25T17:43:22;99470.03;;;12.66;49.14
71424;BME280;59240;51.370;-0.486;2024-03-25T17:48:20;99442.31;;;12.46;49.47
71424;BME280;59240;51.370;-0.486;2024-03-25T17:53:16;99470.81;;;12.50;49.69
71424;BME280;59240;51.370;-0.486;2024-03-25T17:58:11;99470.38;;;12.42;49.87
71424;BME280;59240;51.370;-0.486;2024-03-25T18:03:07;99468.94;;;12.35;50.02
71424;BME280;59240;51.370;-0.486;2024-03-25T18:08:06;99436.09;;;12.14;50.41
71424;BME280;59240;51.370;-0.486;2024-03-25T18:13:02;99465.97;;;12.25;50.54
71424;BME280;59240;51.370;-0.486;2024-03-25T18:18:00;99463.56;;;12.21;50.90
71424;BME280;59240;51.370;-0.486;2024-03-25T18:22:56;99448.25;;;12.15;51.03
71424;BME280;59240;51.370;-0.486;2024-03-25T18:27:51;99447.75;;;12.07;51.18
71424;BME280;59240;51.370;-0.486;2024-03-25T18:32:47;99441.00;;;12.02;51.46
71424;BME280;59240;51.370;-0.486;2024-03-25T18:37:43;99429.22;;;11.94;51.54
71424;BME280;59240;51.370;-0.486;2024-03-25T18:42:39;99428.34;;;11.95;51.79
71424;BME280;59240;51.370;-0.486;2024-03-25T18:47:37;99434.44;;;11.94;52.15
71424;BME280;59240;51.370;-0.486;2024-03-25T18:52:33;99430.63;;;11.84;52.19
71424;BME280;59240;51.370;-0.486;2024-03-25T18:57:29;99412.59;;;11.60;52.49
71424;BME280;59240;51.370;-0.486;2024-03-25T19:02:24;99435.41;;;11.74;52.65
71424;BME280;59240;51.370;-0.486;2024-03-25T19:07:20;99421.03;;;11.65;52.82
71424;BME280;59240;51.370;-0.486;2024-03-25T19:12:16;99387.22;;;11.45;53.03
71424;BME280;59240;51.370;-0.486;2024-03-25T19:17:12;99410.22;;;11.56;53.13
71424;BME280;59240;51.370;-0.486;2024-03-25T19:22:08;99413.03;;;11.51;53.31
71424;BME280;59240;51.370;-0.486;2024-03-25T19:27:04;99409.09;;;11.42;53.19
71424;BME280;59240;51.370;-0.486;2024-03-25T19:32:00;99391.75;;;11.41;53.56
71424;BME280;59240;51.370;-0.486;2024-03-25T19:36:55;99380.06;;;11.31;53.67
71424;BME280;59240;51.370;-0.486;2024-03-25T19:41:51;99358.34;;;11.13;53.80
71424;BME280;59240;51.370;-0.486;2024-03-25T19:46:49;99381.91;;;11.29;54.17
71424;BME280;59240;51.370;-0.486;2024-03-25T19:51:45;99363.63;;;11.12;54.00
71424;BME280;59240;51.370;-0.486;2024-03-25T19:56:41;99378.66;;;11.24;54.50
71424;BME280;59240;51.370;-0.486;2024-03-25T20:01:37;99369.59;;;11.14;54.78
71424;BME280;59240;51.370;-0.486;2024-03-25T20:06:34;99367.63;;;11.19;54.86
71424;BME280;59240;51.370;-0.486;2024-03-25T20:11:30;99352.41;;;11.10;55.48
71424;BME280;59240;51.370;-0.486;2024-03-25T20:16:26;99351.28;;;11.15;55.57
71424;BME280;59240;51.370;-0.486;2024-03-25T20:21:21;99325.88;;;11.02;55.65
71424;BME280;59240;51.370;-0.486;2024-03-25T20:26:17;99341.06;;;11.11;55.95
71424;BME280;59240;51.370;-0.486;2024-03-25T20:31:13;99354.72;;;11.16;56.36
71424;BME280;59240;51.370;-0.486;2024-03-25T20:36:08;99332.06;;;10.99;56.35
71424;BME280;59240;51.370;-0.486;2024-03-25T20:41:04;99330.22;;;11.01;56.51
71424;BME280;59240;51.370;-0.486;2024-03-25T20:46:00;99328.06;;;10.92;56.74
71424;BME280;59240;51.370;-0.486;2024-03-25T20:50:55;99348.56;;;11.00;57.38
71424;BME280;59240;51.370;-0.486;2024-03-25T20:55:51;99321.09;;;10.92;57.39
71424;BME280;59240;51.370;-0.486;2024-03-25T21:00:47;99341.34;;;11.05;57.64
71424;BME280;59240;51.370;-0.486;2024-03-25T21:05:54;99303.06;;;10.88;58.07
71424;BME280;59240;51.370;-0.486;2024-03-25T21:10:49;99296.44;;;10.81;57.60
71424;BME280;59240;51.370;-0.486;2024-03-25T21:15:45;99324.94;;;11.03;57.74
71424;BME280;59240;51.370;-0.486;2024-03-25T21:20:41;99318.97;;;11.01;58.12
71424;BME280;59240;51.370;-0.486;2024-03-25T21:25:40;99314.69;;;11.00;58.29
71424;BME280;59240;51.370;-0.486;2024-03-25T21:30:38;99296.25;;;10.85;58.55
71424;BME280;59240;51.370;-0.486;2024-03-25T21:35:35;99300.84;;;10.98;58.43
71424;BME280;59240;51.370;-0.486;2024-03-25T21:40:31;99295.72;;;10.96;58.76
71424;BME280;59240;51.370;-0.486;2024-03-25T21:45:26;99282.06;;;10.91;58.72
71424;BME280;59240;51.370;-0.486;2024-03-25T21:50:22;99287.81;;;10.98;59.02
71424;BME280;59240;51.370;-0.486;2024-03-25T21:55:19;99272.63;;;10.88;59.24
71424;BME280;59240;51.370;-0.486;2024-03-25T22:00:14;99265.47;;;10.93;59.32
71424;BME280;59240;51.370;-0.486;2024-03-25T22:05:10;99234.69;;;10.83;59.31
71424;BME280;59240;51.370;-0.486;2024-03-25T22:10:07;99240.47;;;10.89;59.30
71424;BME280;59240;51.370;-0.486;2024-03-25T22:15:03;99229.72;;;10.78;59.34
71424;BME280;59240;51.370;-0.486;2024-03-25T22:19:58;99222.97;;;10.74;59.36
71424;BME280;59240;51.370;-0.486;2024-03-25T22:24:54;99205.78;;;10.70;59.35
71424;BME280;59240;51.370;-0.486;2024-03-25T22:29:50;99229.44;;;10.84;59.31
71424;BME280;59240;51.370;-0.486;2024-03-25T22:34:46;99230.13;;;10.88;59.62
71424;BME280;59240;51.370;-0.486;2024-03-25T22:39:41;99220.00;;;10.82;59.35
71424;BME280;59240;51.370;-0.486;2024-03-25T22:44:40;99172.59;;;10.56;59.28
71424;BME280;59240;51.370;-0.486;2024-03-25T22:49:36;99208.19;;;10.75;59.34
71424;BME280;59240;51.370;-0.486;2024-03-25T22:54:33;99216.63;;;10.80;59.38
71424;BME280;59240;51.370;-0.486;2024-03-25T22:59:31;99212.25;;;10.80;59.26
71424;BME280;59240;51.370;-0.486;2024-03-25T23:04:27;99179.06;;;10.66;59.26
71424;BME280;59240;51.370;-0.486;2024-03-25T23:09:23;99207.81;;;10.82;59.47
71424;BME280;59240;51.370;-0.486;2024-03-25T23:14:19;99185.66;;;10.74;59.53
71424;BME280;59240;51.370;-0.486;2024-03-25T23:19:14;99191.53;;;10.77;59.49
71424;BME280;59240;51.370;-0.486;2024-03-25T23:24:11;99175.31;;;10.72;59.54
71424;BME280;59240;51.370;-0.486;2024-03-25T23:29:07;99159.63;;;10.55;59.37
71424;BME280;59240;51.370;-0.486;2024-03-25T23:34:04;99177.22;;;10.68;59.54
71424;BME280;59240;51.370;-0.486;2024-03-25T23:39:00;99114.09;;;10.27;59.51
71424;BME280;59240;51.370;-0.486;2024-03-25T23:43:57;99125.91;;;10.34;59.58
71424;BME280;59240;51.370;-0.486;2024-03-25T23:48:52;99145.50;;;10.41;59.80
71424;BME280;59240;51.370;-0.486;2024-03-25T23:53:48;99160.72;;;10.51;59.87
71424;BME280;59240;51.370;-0.486;2024-03-25T23:58:44;99160.72;;;10.51;59.95
